Flight Track Log - Related Links

Times and Time Zones

All times are in EST time to prevent confusion due to time zone crossing. See the EJA951 flight status page for this flight to view local times or setup timezone preferences in your user account.

Time Position Orientation Groundspeed Altitude Reporting Facility
EST Latitude Longitude Course Direction KTS MPH feet Rate Location/Type
Fri 09:12:12 AM 39.8667 -75.2667 270° West 172 198 800  Level Philadelphia TRACON
Fri 09:12:24 AM 39.8667 -75.2833 270° West 171 197 1,400 3,333 Climbing Philadelphia TRACON
Fri 09:13:24 AM 39.8333 -75.3667 243° Southwest 226 260 4,800 3,150 Climbing Philadelphia TRACON
Fri 09:14:24 AM 39.8833 -75.4167 323° Northwest 249 287 7,700 2,600 Climbing Philadelphia TRACON
Fri 09:15:24 AM 39.9500 -75.4500 339° North 274 315 10,000 1,886 Climbing Philadelphia TRACON
Fri 09:16:09 AM 40.0011 -75.4725 341° North 337 388 11,000 1,714 Climbing New York Center
Fri 09:17:09 AM 40.0769 -75.5047 342° North 331 381 13,000 1,250 Climbing New York Center
Fri 09:18:09 AM 40.1836 -75.5472 343° North 350 403 13,500 843 Climbing New York Center
Fri 09:19:10 AM 40.2600 -75.6178 325° Northwest 374 430 14,700 1,339 Climbing New York Center
Fri 09:20:10 AM 40.3286 -75.7206 311° West 374 430 16,200 1,210 Climbing New York Center
Fri 09:21:09 AM 40.4050 -75.8353 311° West 379 436 17,100 1,169 Climbing New York Center
Fri 09:22:08 AM 40.4536 -75.9614 297° West 391 450 18,500 2,420 Climbing New York Center
Fri 09:23:08 AM 40.4708 -76.0911 280° West 376 433 21,900 2,705 Climbing New York Center
Fri 09:24:10 AM 40.4900 -76.2181 281° West 365 420 24,000 1,820 Climbing New York Center
Fri 09:25:10 AM 40.5064 -76.3178 282° West 360 414 25,600 1,780 Climbing New York Center
Fri 09:26:08 AM 40.5322 -76.4753 282° West 360 414 27,500 1,513 Climbing New York Center
Fri 09:27:09 AM 40.5478 -76.5833 281° West 366 421 28,600 1,388 Climbing New York Center
Fri 09:28:09 AM 40.5789 -76.7497 284° West 379 436 30,300 1,587 Climbing New York Center
Fri 09:29:10 AM 40.6292 -76.8719 298° West 384 442 31,800 1,190 Climbing New York Center
Fri 09:30:10 AM 40.6806 -77.0022 298° West 393 452 32,700 1,333 Climbing New York Center
Fri 09:31:07 AM 40.7322 -77.1303 298° West 400 460 34,400 1,311 Climbing New York Center
Fri 09:32:09 AM 40.7475 -77.2686 278° West 384 442 35,300 836 Climbing New York Center
Fri 09:33:09 AM 40.7533 -77.3925 274° West 379 436 36,100 961 Climbing New York Center
Fri 09:35:35 AM 40.7658 -77.7331 273° West 386 444 38,600 1,067 Climbing Cleveland Center
Fri 09:36:37 AM 40.7714 -77.8992 273° West 382 440 39,800 677 Climbing Cleveland Center
Fri 09:37:39 AM 40.7756 -78.0356 272° West 377 434 40,000 97 Climbing Cleveland Center
Fri 09:38:41 AM 40.7806 -78.1781 273° West 382 440 40,000  Level Cleveland Center
Fri 09:39:43 AM 40.7853 -78.3261 272° West 396 456 40,000  Level Cleveland Center
Fri 09:40:45 AM 40.7894 -78.4783 272° West 409 471 40,000  Level Cleveland Center
Fri 09:41:47 AM 40.7933 -78.6344 272° West 420 483 40,000  Level Cleveland Center
Fri 09:42:49 AM 40.7972 -78.7911 272° West 425 489 40,000  Level Cleveland Center
Fri 09:43:51 AM 40.8011 -78.9750 272° West 429 494 40,000  Level Cleveland Center
Fri 09:44:53 AM 40.8042 -79.1322 272° West 430 495 40,000  Level Cleveland Center
Fri 09:45:55 AM 40.8078 -79.2892 272° West 431 496 40,000  Level Cleveland Center
Fri 09:46:57 AM 40.8106 -79.4461 271° West 432 497 40,000  Level Cleveland Center
Fri 09:47:59 AM 40.8122 -79.6044 271° West 435 501 40,000  Level Cleveland Center
Fri 09:49:02 AM 40.8147 -79.7922 271° West 433 498 40,000  Level Cleveland Center
Fri 09:50:04 AM 40.8167 -79.9489 271° West 432 497 40,000  Level Cleveland Center
Fri 09:51:06 AM 40.8189 -80.1150 271° West 432 497 40,000 145 Level Cleveland Center
Fri 09:52:08 AM 40.8211 -80.2711 271° West 428 493 40,300 339 Climbing Cleveland Center
Fri 09:53:10 AM 40.8219 -80.4236 270° West 426 490 40,700 484 Climbing Cleveland Center
Fri 09:54:12 AM 40.8231 -80.6044 271° West 422 486 41,300 532 Climbing Cleveland Center
Fri 09:55:14 AM 40.8239 -80.7481 270° West 413 475 41,800 484 Climbing Cleveland Center
Fri 09:56:16 AM 40.8250 -80.8969 271° West 409 471 42,300 484 Climbing Cleveland Center
Fri 09:57:18 AM 40.8233 -81.0600 269° West 409 471 42,800 339 Climbing Cleveland Center
Fri 09:58:20 AM 40.8236 -81.2092 270° West 402 463 43,000 97 Climbing Cleveland Center
Fri 09:59:22 AM 40.8242 -81.3597 270° West 403 464 43,000  Level Cleveland Center
Fri 10:00:25 AM 40.8239 -81.5117 270° West 408 470 43,000  Level Cleveland Center
Fri 10:01:27 AM 40.8239 -81.6653 270° West 411 473 43,000  Level Cleveland Center
Fri 10:02:29 AM 40.8233 -81.8183 270° West 411 473 43,000  Level Cleveland Center
Fri 10:03:31 AM 40.8219 -81.9989 269° West 414 476 43,000  Level Cleveland Center
Fri 10:04:33 AM 40.8208 -82.1533 270° West 415 478 43,000  Level Cleveland Center
Fri 10:05:15 AM 40.8206 -82.2578 270° West 416 479 43,000  Level Indianapolis Center
Fri 10:06:18 AM 40.8189 -82.4114 269° West 415 478 43,000  Level Indianapolis Center
Fri 10:07:20 AM 40.8169 -82.5656 269° West 415 478 43,000  Level Indianapolis Center
Fri 10:08:22 AM 40.8150 -82.7192 269° West 416 479 43,000  Level Indianapolis Center
Fri 10:09:24 AM 40.8139 -82.8744 270° West 418 481 43,000  Level Indianapolis Center
Fri 10:10:26 AM 40.8114 -83.0281 269° West 416 479 43,000  Level Indianapolis Center
Fri 10:11:28 AM 40.8086 -83.2058 269° West 412 474 43,000  Level Indianapolis Center
Fri 10:12:30 AM 40.8150 -83.3597 273° West 414 476 43,000  Level Indianapolis Center
Fri 10:13:32 AM 40.8233 -83.5119 274° West 414 476 43,000  Level Indianapolis Center
Fri 10:14:34 AM 40.8300 -83.6508 274° West 415 478 43,000  Level Indianapolis Center
Fri 10:15:36 AM 40.8400 -83.8331 274° West 417 480 43,000  Level Indianapolis Center
Fri 10:16:38 AM 40.8483 -83.9853 274° West 418 481 43,000  Level Indianapolis Center
Fri 10:17:40 AM 40.8547 -84.1381 273° West 419 482 43,000  Level Indianapolis Center
Fri 10:18:42 AM 40.8617 -84.2914 273° West 421 484 43,000  Level Indianapolis Center
Fri 10:19:44 AM 40.8686 -84.4444 273° West 419 482 43,000  Level Indianapolis Center
Fri 10:20:46 AM 40.8769 -84.6267 274° West 417 480 43,000  Level Indianapolis Center
Fri 10:21:48 AM 40.8831 -84.7806 273° West 421 484 43,000  Level Indianapolis Center
Fri 10:22:50 AM 40.8886 -84.9222 273° West 421 484 43,000  Level Indianapolis Center
Fri 10:23:52 AM 40.8944 -85.0750 273° West 421 484 43,000  Level Indianapolis Center
Fri 10:24:54 AM 40.9011 -85.2594 273° West 421 484 43,000  Level Indianapolis Center
Fri 10:25:56 AM 40.9069 -85.4144 273° West 424 488 43,000  Level Indianapolis Center
Fri 10:26:58 AM 40.9125 -85.5681 273° West 423 487 43,000  Level Indianapolis Center
Fri 10:28:00 AM 40.9175 -85.7217 273° West 421 484 43,000  Level Indianapolis Center
Fri 10:29:02 AM 40.9231 -85.8744 273° West 420 483 43,000  Level Indianapolis Center
Fri 10:30:04 AM 40.9289 -86.0572 272° West 418 481 43,000  Level Indianapolis Center
Fri 10:31:07 AM 40.9331 -86.2092 272° West 417 480 43,000  Level Indianapolis Center
Fri 10:32:09 AM 40.9375 -86.3619 272° West 419 482 43,000  Level Indianapolis Center
Fri 10:33:11 AM 40.9411 -86.5133 272° West 417 480 43,000  Level Indianapolis Center
Fri 10:34:13 AM 40.9450 -86.6656 272° West 417 480 43,000  Level Indianapolis Center
Fri 10:35:15 AM 40.9497 -86.8478 272° West 417 480 43,000  Level Indianapolis Center
Fri 10:36:17 AM 40.9525 -86.9997 271° West 418 481 43,000  Level Indianapolis Center
Fri 10:37:19 AM 40.9567 -87.1528 272° West 418 481 43,000  Level Indianapolis Center
Fri 10:38:39 AM 40.9606 -87.3522 272° West 420 483 43,000  Level Chicago Center
Fri 10:39:41 AM 40.9633 -87.5078 271° West 422 486 43,000  Level Chicago Center
Fri 10:40:44 AM 40.9672 -87.6933 272° West 419 482 43,000  Level Chicago Center
Fri 10:41:46 AM 40.9689 -87.8461 271° West 416 479 43,000  Level Chicago Center
Fri 10:42:48 AM 40.9719 -87.9992 272° West 415 478 43,000  Level Chicago Center
Fri 10:43:50 AM 40.9744 -88.1519 271° West 415 478 43,000  Level Chicago Center
Fri 10:44:52 AM 40.9764 -88.3053 271° West 414 476 43,000  Level Chicago Center
Fri 10:45:54 AM 40.9778 -88.4575 271° West 414 476 43,000  Level Chicago Center
Fri 10:46:56 AM 40.9786 -88.6408 270° West 416 479 43,000  Level Chicago Center
Fri 10:47:58 AM 40.9800 -88.7911 271° West 411 473 43,000  Level Chicago Center
Fri 10:49:00 AM 40.9814 -88.9422 271° West 410 472 43,000  Level Chicago Center
Fri 10:50:03 AM 40.9822 -89.0939 270° West 411 473 43,000  Level Chicago Center
Fri 10:51:05 AM 40.9828 -89.2444 270° West 409 471 43,000  Level Chicago Center
Fri 10:52:07 AM 40.9822 -89.3939 270° West 407 468 43,000  Level Chicago Center
Fri 10:53:09 AM 40.9808 -89.5733 269° West 406 467 43,000  Level Chicago Center
Fri 10:54:11 AM 40.9789 -89.7231 269° West 407 468 43,000  Level Chicago Center
Fri 10:55:13 AM 40.9786 -89.8714 270° West 404 465 43,000  Level Chicago Center
Fri 10:56:15 AM 40.9781 -90.0219 270° West 406 467 43,000  Level Chicago Center
Fri 10:57:17 AM 40.9781 -90.1722 270° West 407 468 43,000  Level Chicago Center
Fri 10:58:19 AM 40.9808 -90.3258 271° West 411 473 43,000  Level Chicago Center
Fri 10:59:22 AM 40.9792 -90.5089 269° West 417 480 43,000  Level Chicago Center
Fri 11:00:24 AM 40.9781 -90.6567 269° West 412 474 43,000 242 Level Chicago Center
Fri 11:01:26 AM 40.9744 -90.8019 268° West 405 466 43,500 484 Climbing Chicago Center
Fri 11:02:28 AM 40.9731 -90.9469 269° West 400 460 44,000 484 Climbing Chicago Center
Fri 11:03:30 AM 40.9711 -91.0908 269° West 398 458 44,500 484 Climbing Chicago Center
Fri 11:04:32 AM 40.9650 -91.2639 267° West 394 453 45,000 242 Climbing Chicago Center
Fri 11:05:34 AM 40.9631 -91.4056 269° West 394 453 45,000  Level Chicago Center
Fri 11:06:36 AM 40.9608 -91.5542 269° West 404 465 45,000  Level Chicago Center
Fri 11:07:38 AM 40.9589 -91.7017 269° West 407 468 45,000  Level Chicago Center
Fri 11:08:39 AM 40.9569 -91.8511 269° West 410 472 45,000  Level Chicago Center
Fri 11:09:41 AM 40.9531 -92.0314 268° West 413 475 45,000  Level Chicago Center
Fri 11:10:43 AM 40.9506 -92.1806 269° West 413 475 45,000  Level Chicago Center
Fri 11:11:45 AM 40.9472 -92.3325 268° West 417 480 45,000  Level Chicago Center
Fri 11:12:47 AM 40.9436 -92.4817 268° West 414 476 45,000  Level Chicago Center
Fri 11:13:49 AM 40.9400 -92.6344 268° West 421 484 45,000  Level Chicago Center
Fri 11:14:51 AM 40.9347 -92.8131 268° West 413 475 45,000  Level Chicago Center
Fri 11:15:53 AM 40.9308 -92.9614 268° West 410 472 45,000  Level Chicago Center
Fri 11:16:56 AM 40.9267 -93.1100 268° West 411 473 45,000  Level Chicago Center
Fri 11:17:49 AM 40.9217 -93.2606 268° West 408 470 45,000  Level Minneapolis Center
Fri 11:18:51 AM 40.9172 -93.4128 268° West 415 478 45,000  Level Minneapolis Center
Fri 11:19:53 AM 40.9111 -93.5647 267° West 418 481 45,000  Level Minneapolis Center
Fri 11:20:55 AM 40.9067 -93.7169 268° West 419 482 45,000  Level Minneapolis Center
Fri 11:21:57 AM 40.9006 -93.8700 267° West 420 483 45,000  Level Minneapolis Center
Fri 11:22:59 AM 40.8928 -94.0544 267° West 421 484 45,000  Level Minneapolis Center
Fri 11:24:01 AM 40.8861 -94.2081 267° West 422 486 45,000  Level Minneapolis Center
Fri 11:25:03 AM 40.8806 -94.3606 267° West 421 484 45,000  Level Minneapolis Center
Fri 11:26:05 AM 40.8744 -94.5111 267° West 417 480 45,000  Level Minneapolis Center
Fri 11:27:07 AM 40.8664 -94.6878 267° West 422 486 45,000  Level Minneapolis Center
Fri 11:28:09 AM 40.8592 -94.8428 267° West 422 486 45,000  Level Minneapolis Center
Fri 11:29:11 AM 40.8531 -94.9967 267° West 420 483 45,000  Level Minneapolis Center
Fri 11:30:13 AM 40.8458 -95.1508 267° West 420 483 45,000  Level Minneapolis Center
Fri 11:31:15 AM 40.8375 -95.3058 266° West 421 484 45,000  Level Minneapolis Center
Fri 11:32:17 AM 40.8283 -95.4925 266° West 422 486 45,000  Level Minneapolis Center
Fri 11:33:19 AM 40.8200 -95.6472 266° West 421 484 45,000  Level Minneapolis Center
Fri 11:34:21 AM 40.8122 -95.8047 266° West 426 490 45,000  Level Minneapolis Center
Fri 11:35:23 AM 40.8031 -95.9581 266° West 421 484 45,000  Level Minneapolis Center
Fri 11:36:25 AM 40.7950 -96.1136 266° West 421 484 45,000  Level Minneapolis Center
Fri 11:37:27 AM 40.7864 -96.2700 266° West 424 488 45,000  Level Minneapolis Center
Fri 11:38:29 AM 40.7758 -96.4244 265° West 420 483 45,000  Level Minneapolis Center
Fri 11:39:31 AM 40.7675 -96.5767 266° West 419 482 45,000  Level Minneapolis Center
Fri 11:40:33 AM 40.7561 -96.7622 265° West 421 484 45,000  Level Minneapolis Center
Fri 11:42:37 AM 40.7364 -97.0744 265° West 425 489 45,000  Level Minneapolis Center
Fri 11:43:39 AM 40.7264 -97.2289 265° West 424 488 45,000  Level Minneapolis Center
Fri 11:44:41 AM 40.7153 -97.3847 265° West 424 488 45,000  Level Minneapolis Center
Fri 11:45:42 AM 40.7042 -97.5406 265° West 425 489 45,000  Level Minneapolis Center
Fri 11:46:44 AM 40.6936 -97.6950 265° West 425 489 45,000  Level Minneapolis Center
Fri 11:47:46 AM 40.6797 -97.8797 264° West 422 486 45,000  Level Minneapolis Center
Fri 11:48:48 AM 40.6694 -98.0347 265° West 424 488 45,000  Level Minneapolis Center
Fri 11:49:50 AM 40.6578 -98.1911 264° West 426 490 45,000  Level Minneapolis Center
Fri 11:50:52 AM 40.6453 -98.3489 264° West 430 495 45,000  Level Minneapolis Center
Fri 11:51:54 AM 40.6333 -98.5067 264° West 431 496 45,000  Level Minneapolis Center
Fri 11:52:56 AM 40.6214 -98.6647 264° West 431 496 45,000  Level Minneapolis Center
Fri 11:53:58 AM 40.6081 -98.8233 264° West 432 497 45,000  Level Minneapolis Center
Fri 11:54:59 AM 40.5961 -98.9822 264° West 433 498 45,000  Level Minneapolis Center
Fri 11:56:01 AM 40.5831 -99.1406 264° West 433 498 45,000  Level Minneapolis Center
Fri 11:56:44 AM 40.5725 -99.2661 264° West 432 497 45,000  Level Denver Center
Fri 11:57:46 AM 40.5583 -99.4203 263° West 426 490 45,000  Level Denver Center
Fri 11:58:48 AM 40.5453 -99.5750 264° West 423 487 45,000  Level Denver Center
Fri 11:59:50 AM 40.5319 -99.7306 264° West 426 490 45,000  Level Denver Center
Fri 12:00:52 PM 40.5150 -99.9158 263° West 427 491 45,000  Level Denver Center
Fri 12:01:54 PM 40.5011 -100.0658 263° West 431 496 45,000  Level Denver Center
Fri 12:02:56 PM 40.4875 -100.2183 263° West 436 502 45,000  Level Denver Center
Fri 12:03:58 PM 40.4708 -100.3958 263° West 437 503 45,000  Level Denver Center
Fri 12:05:00 PM 40.4553 -100.5492 262° West 439 505 45,000  Level Denver Center
Fri 12:06:02 PM 40.4389 -100.7281 263° West 439 505 45,000  Level Denver Center
Fri 12:07:05 PM 40.4231 -100.8811 262° West 441 507 45,000  Level Denver Center
Fri 12:08:07 PM 40.4058 -101.0603 263° West 441 507 45,000  Level Denver Center
Fri 12:09:09 PM 40.3908 -101.2119 263° West 439 505 45,000  Level Denver Center
Fri 12:10:11 PM 40.3761 -101.3633 263° West 437 503 45,000  Level Denver Center
Fri 12:11:13 PM 40.3564 -101.5386 262° West 434 499 45,000  Level Denver Center
Fri 12:12:15 PM 40.3414 -101.6906 263° West 437 503 45,000  Level Denver Center
Fri 12:13:17 PM 40.3219 -101.8642 262° West 432 497 45,000  Level Denver Center
Fri 12:14:19 PM 40.3067 -102.0111 262° West 426 490 45,000  Level Denver Center
Fri 12:15:21 PM 40.2869 -102.1831 262° West 427 491 45,000  Level Denver Center
Fri 12:16:23 PM 40.2711 -102.3292 262° West 425 489 45,000  Level Denver Center
Fri 12:17:25 PM 40.2508 -102.5022 261° West 429 494 45,000  Level Denver Center
Fri 12:18:27 PM 40.2350 -102.6508 262° West 431 496 45,000  Level Denver Center
Fri 12:19:29 PM 40.2158 -102.8203 262° West 436 502 45,000  Level Denver Center
Fri 12:20:31 PM 40.1972 -102.9758 261° West 436 502 45,000  Level Denver Center
Fri 12:21:33 PM 40.1786 -103.1328 261° West 439 505 45,000  Level Denver Center
Fri 12:22:35 PM 40.1594 -103.2878 261° West 435 501 45,000  Level Denver Center
Fri 12:23:38 PM 40.1369 -103.4750 261° West 435 501 45,000  Level Denver Center
Fri 12:24:40 PM 40.1172 -103.6292 261° West 433 498 45,000  Level Denver Center
Fri 12:25:42 PM 40.0997 -103.7869 262° West 444 511 45,000  Level Denver Center
Fri 12:26:44 PM 40.0794 -103.9394 260° West 432 497 45,000  Level Denver Center
Fri 12:27:46 PM 40.0614 -104.0908 261° West 425 489 45,000  Level Denver Center
Fri 12:28:48 PM 40.0417 -104.2414 260° West 424 488 45,000  Level Denver Center
Fri 12:29:50 PM 40.0181 -104.4225 260° West 423 487 45,000  Level Denver Center
Fri 12:30:52 PM 39.9989 -104.5736 261° West 427 491 45,000  Level Denver Center
Fri 12:31:54 PM 39.9786 -104.7253 260° West 429 494 45,000  Level Denver Center
Fri 12:32:56 PM 39.9575 -104.8753 260° West 424 488 45,000  Level Denver Center
Fri 12:33:58 PM 39.9331 -105.0519 260° West 419 482 45,000  Level Denver Center
Fri 12:35:00 PM 39.9131 -105.1961 260° West 408 470 45,000  Level Denver Center
Fri 12:36:02 PM 39.8925 -105.3419 260° West 411 473 45,000  Level Denver Center
Fri 12:37:04 PM 39.8728 -105.4881 260° West 413 475 45,000  Level Denver Center
Fri 12:38:06 PM 39.8517 -105.6339 259° West 413 475 45,000  Level Denver Center
Fri 12:39:08 PM 39.8297 -105.7808 259° West 417 480 45,000  Level Denver Center
Fri 12:40:10 PM 39.8067 -105.9583 260° West 417 480 45,000  Level Denver Center
Fri 12:41:13 PM 39.7825 -106.1139 259° West 434 499 45,000  Level Denver Center
Fri 12:42:15 PM 39.7586 -106.2728 259° West 447 514 45,000 -194 Level Denver Center
Fri 12:43:17 PM 39.7353 -106.4350 259° West 456 525 44,600 -532 Descending Denver Center
Fri 12:44:19 PM 39.7100 -106.6111 259° West 465 535 43,900 -677 Descending Denver Center
Fri 12:45:21 PM 39.6831 -106.7858 259° West 457 526 43,200 -435 Descending Denver Center
Fri 12:46:23 PM 39.6583 -106.9383 258° West 452 520 43,000 -97 Descending Denver Center
Fri 12:47:25 PM 39.6319 -107.1172 259° West 453 521 43,000  Level Denver Center
Fri 12:48:27 PM 39.6075 -107.2697 258° West 452 520 43,000  Level Denver Center
Fri 12:49:29 PM 39.5794 -107.4478 259° West 450 518 43,000  Level Denver Center
Fri 12:50:31 PM 39.5550 -107.6019 258° West 454 522 43,000  Level Denver Center
Fri 12:51:33 PM 39.5269 -107.7825 259° West 458 527 43,000  Level Denver Center
Fri 12:52:35 PM 39.5008 -107.9375 258° West 459 528 43,000  Level Denver Center
Fri 12:53:37 PM 39.4753 -108.0928 258° West 459 528 43,000  Level Denver Center
Fri 12:54:39 PM 39.4461 -108.2714 258° West 454 522 43,000  Level Denver Center
Fri 12:55:41 PM 39.4197 -108.4258 258° West 456 525 43,000  Level Denver Center
Fri 12:56:43 PM 39.3894 -108.6092 258° West 462 532 43,000  Level Denver Center
Fri 12:57:45 PM 39.3628 -108.7647 258° West 459 528 43,000  Level Denver Center
Fri 12:58:48 PM 39.3308 -108.9467 257° West 460 529 43,000  Level Denver Center
Fri 12:59:50 PM 39.3044 -109.1025 258° West 461 531 43,000  Level Denver Center
Fri 01:00:52 PM 39.2778 -109.2572 257° West 459 528 43,000  Level Denver Center
Fri 01:01:54 PM 39.2456 -109.4394 257° West 467 537 43,000  Level Denver Center
Fri 01:02:25 PM 39.2325 -109.5183 258° West 466 536 43,000  Level Salt Lake Center
Fri 01:03:27 PM 39.1992 -109.6994 257° West 465 535 43,000  Level Salt Lake Center
Fri 01:04:29 PM 39.1719 -109.8561 257° West 466 536 43,000  Level Salt Lake Center
Fri 01:05:30 PM 39.1447 -110.0119 257° West 465 535 43,000  Level Salt Lake Center
Fri 01:06:32 PM 39.1111 -110.1936 257° West 467 537 43,000  Level Salt Lake Center
Fri 01:08:06 PM 39.0642 -110.4533 257° West 468 539 43,000  Level Denver Center
Fri 01:08:36 PM 39.0481 -110.5306 255° West 468 539 43,000  Level Salt Lake Center
Fri 01:09:38 PM 39.0167 -110.6831 255° West 463 533 43,000  Level Salt Lake Center
Fri 01:10:40 PM 38.9833 -110.8642 257° West 465 535 43,000  Level Salt Lake Center
Fri 01:11:41 PM 38.9583 -111.0044 257° West 467 537 43,000  Level Salt Lake Center
Fri 01:12:43 PM 38.9214 -111.1981 256° West 468 539 43,000  Level Salt Lake Center
Fri 01:13:45 PM 38.8897 -111.3581 256° West 466 536 43,000  Level Salt Lake Center
Fri 01:14:47 PM 38.8653 -111.5197 259° West 464 534 43,000  Level Salt Lake Center
Fri 01:15:49 PM 38.8453 -111.6817 261° West 462 532 43,000  Level Salt Lake Center
Fri 01:16:51 PM 38.8244 -111.8433 261° West 461 531 43,000  Level Salt Lake Center
Fri 01:17:53 PM 38.8028 -112.0061 260° West 464 534 43,000  Level Salt Lake Center
Fri 01:18:54 PM 38.7769 -112.2017 260° West 465 535 43,000  Level Salt Lake Center
Fri 01:19:56 PM 38.7561 -112.3656 261° West 467 537 43,000  Level Salt Lake Center
Fri 01:20:58 PM 38.7344 -112.5294 260° West 469 540 43,000  Level Salt Lake Center
Fri 01:22:00 PM 38.7108 -112.6928 260° West 469 540 43,000  Level Salt Lake Center
Fri 01:23:02 PM 38.6892 -112.8583 261° West 473 544 43,000  Level Salt Lake Center
Fri 01:24:04 PM 38.6658 -113.0186 259° West 466 536 43,000  Level Salt Lake Center
Fri 01:25:05 PM 38.6381 -113.2206 260° West 475 547 43,000  Level Salt Lake Center
Fri 01:26:07 PM 38.6142 -113.3856 260° West 478 550 43,000  Level Salt Lake Center
Fri 01:27:09 PM 38.5908 -113.5497 260° West 473 544 43,000  Level Salt Lake Center
Fri 01:28:11 PM 38.5675 -113.7150 260° West 475 547 43,000  Level Salt Lake Center
Fri 01:29:13 PM 38.5431 -113.8806 259° West 476 548 43,000  Level Salt Lake Center
Fri 01:30:15 PM 38.5175 -114.0494 259° West 482 555 43,000  Level Salt Lake Center
Fri 01:31:17 PM 38.4875 -114.2500 259° West 482 555 43,000  Level Salt Lake Center
Fri 01:32:18 PM 38.4614 -114.4175 259° West 483 556 43,000  Level Salt Lake Center
Fri 01:33:20 PM 38.4358 -114.5842 259° West 482 555 43,000  Level Salt Lake Center
Fri 01:34:22 PM 38.4106 -114.7525 259° West 484 557 43,000  Level Salt Lake Center
Fri 01:35:24 PM 38.3836 -114.9200 258° West 485 558 43,000  Level Salt Lake Center
Fri 01:36:26 PM 38.3569 -115.0897 259° West 488 562 43,000  Level Salt Lake Center
Fri 01:37:28 PM 38.3239 -115.2931 258° West 490 564 43,000  Level Salt Lake Center
Fri 01:38:31 PM 38.2972 -115.4578 258° West 489 563 43,000  Level Salt Lake Center
Fri 01:39:32 PM 38.2700 -115.6275 259° West 489 563 43,000  Level Salt Lake Center
Fri 01:40:34 PM 38.2419 -115.7972 258° West 490 564 43,000  Level Salt Lake Center
Fri 01:41:36 PM 38.2133 -115.9672 258° West 491 565 43,000  Level Salt Lake Center
Fri 01:42:38 PM 38.1789 -116.1711 258° West 492 566 43,000  Level Salt Lake Center
Fri 01:43:40 PM 38.1503 -116.3414 258° West 492 566 43,000  Level Salt Lake Center
Fri 01:44:20 PM 38.1336 -116.4419 258° West 492 566 43,000  Level Oakland Center
Fri 01:45:21 PM 38.1042 -116.6108 258° West 490 564 43,000  Level Oakland Center
Fri 01:46:23 PM 38.0750 -116.7800 258° West 490 564 43,000  Level Oakland Center
Fri 01:47:24 PM 38.0444 -116.9494 257° West 489 563 43,000  Level Oakland Center
Fri 01:48:26 PM 37.9997 -117.1172 251° West 492 566 43,000  Level Oakland Center
Fri 01:49:28 PM 37.9419 -117.2806 246° West 496 571 43,000 -341 Level Oakland Center
Fri 01:50:29 PM 37.8850 -117.4403 246° West 494 568 42,300 -1,122 Descending Oakland Center
Fri 01:51:31 PM 37.8275 -117.5992 245° Southwest 495 570 40,700 -1,610 Descending Oakland Center
Fri 01:52:32 PM 37.7617 -117.7789 245° Southwest 472 543 39,000 -1,610 Descending Oakland Center
Fri 01:53:34 PM 37.7025 -117.9397 245° Southwest 495 570 37,400 -1,500 Descending Oakland Center
Fri 01:54:36 PM 37.6431 -118.1042 246° West 511 588 35,900 -1,463 Descending Oakland Center
Fri 01:55:37 PM 37.5808 -118.2706 245° Southwest 522 601 34,400 -1,463 Descending Oakland Center
Fri 01:56:39 PM 37.5186 -118.4400 245° Southwest 531 611 32,900 -1,512 Descending Oakland Center
Fri 01:57:40 PM 37.4553 -118.6106 245° Southwest 537 618 31,300 -1,415 Descending Oakland Center
Fri 01:58:42 PM 37.3936 -118.7789 245° Southwest 532 612 30,000 -629 Descending Oakland Center
Fri 01:59:44 PM 37.3711 -118.9719 262° West 533 613 30,000 -244 Level Oakland Center
Fri 02:00:45 PM 37.3517 -119.1567 263° West 534 615 29,500 -1,220 Descending Oakland Center
Fri 02:01:47 PM 37.3333 -119.3364 263° West 524 603 27,500 -2,129 Descending Oakland Center
Fri 02:02:49 PM 37.3128 -119.5436 263° West 500 575 25,100 -1,707 Descending Oakland Center
Fri 02:03:50 PM 37.2956 -119.7092 263° West 485 558 24,000 -1,268 Descending Oakland Center
Fri 02:04:52 PM 37.2772 -119.8764 262° West 484 557 22,500 -1,694 Descending Oakland Center
Fri 02:05:54 PM 37.2592 -120.0383 262° West 475 547 20,500 -1,951 Descending Oakland Center
Fri 02:06:55 PM 37.2425 -120.1931 262° West 453 521 18,500 -1,902 Descending Oakland Center
Fri 02:07:57 PM 37.2244 -120.3436 261° West 438 504 16,600 -2,087 Descending Oakland Center
Fri 02:08:50 PM 37.2000 -120.4833 258° West 458 527 14,500 -2,177 Descending Northern Cal TRACON
Fri 02:09:50 PM 37.1667 -120.6167 253° West 387 445 12,500 -1,750 Descending Northern Cal TRACON
Fri 02:10:50 PM 37.1500 -120.7333 260° West 370 426 11,000 -1,250 Descending Northern Cal TRACON
Fri 02:11:50 PM 37.1167 -120.8667 253° West 381 438 10,000 -500 Descending Northern Cal TRACON
Fri 02:12:50 PM 37.0833 -121.0000 253° West 385 443 10,000  Level Northern Cal TRACON
Fri 02:13:50 PM 37.0667 -121.1333 261° West 391 450 10,000  Level Northern Cal TRACON
Fri 02:14:50 PM 37.0500 -121.2667 261° West 388 447 10,000 -100 Level Northern Cal TRACON
Fri 02:15:50 PM 37.0667 -121.3833 280° West 303 349 9,800 -900 Descending Northern Cal TRACON
Fri 02:16:50 PM 37.1000 -121.4667 297° West 271 312 8,200 -1,488 Descending Northern Cal TRACON
Fri 02:17:51 PM 37.1167 -121.5500 284° West 272 313 6,800 -1,488 Descending Northern Cal TRACON
Fri 02:18:51 PM 37.1500 -121.6333 297° West 271 312 5,200 -1,100 Descending Northern Cal TRACON
Fri 02:19:51 PM 37.1833 -121.7333 293° West 259 298 4,600 -950 Descending Northern Cal TRACON
Fri 02:20:51 PM 37.2333 -121.7833 321° Northwest 257 296 3,300 -1,250 Descending Northern Cal TRACON
Fri 02:21:51 PM 37.2833 -121.8333 321° Northwest 215 247 2,100 -992 Descending Northern Cal TRACON
Fri 02:22:52 PM 37.3167 -121.8667 322° Northwest 131 151 1,300 -659 Descending Northern Cal TRACON
Fri 02:23:22 PM 37.3197 -121.8831 283° West 170 196 1,100 -587 Descending Oakland Center
Fri 02:24:24 PM 37.3469 -121.9144 317° Northwest 145 167 400 -677 Descending Oakland Center
Fri 02:26:00 PM 37.3500 -121.9167 North  Level FlightAware Approximate
Fri 02:33:00 PM 37.3627 -121.9291 North  Level Estimated

Login

Don't have an account? Register now (free) for customized features, flight alerts, and more!